Terminal Aerodrome Forecast
Issued by NWS Pocatello, ID

Home | Current Version | Previous Version | Text Only | Print | Product List | Glossary On
Versions: 1 2 3 4 5 6 7 8 9 10 11 12 13 14
000
FTUS45 KPIH 032320
TAFBYI
TAF
KBYI 032320Z 0400/0424 27011KT P6SM SCT200
     FM040300 23007KT P6SM SKC
     FM042000 28009KT P6SM FEW090=

USA.gov is the U.S. government's official web portal to all federal, state and local government web resources and services.